createdAt,value
2023-05-20T00:02:28.463Z,10.24
2023-05-20T00:04:59.587Z,10.20
2023-05-20T00:07:30.702Z,10.15
2023-05-20T00:10:04.157Z,10.12
2023-05-20T00:12:35.441Z,10.08
2023-05-20T00:15:06.401Z,10.04
2023-05-20T00:17:37.561Z,9.99
2023-05-20T00:20:09.670Z,9.94
2023-05-20T00:22:40.578Z,9.90
2023-05-20T00:25:15.140Z,9.87
2023-05-20T00:27:46.811Z,9.86
2023-05-20T00:30:18.161Z,9.82
2023-05-20T00:32:48.975Z,9.81
2023-05-20T00:35:20.236Z,9.79
2023-05-20T00:37:51.094Z,9.80
2023-05-20T00:40:25.652Z,9.80
2023-05-20T00:42:56.339Z,9.78
2023-05-20T00:45:27.270Z,9.78
2023-05-20T00:48:01.909Z,9.77
2023-05-20T00:50:33.001Z,9.76
2023-05-20T00:53:03.874Z,9.73
2023-05-20T00:55:37.955Z,9.71
2023-05-20T00:58:09.617Z,9.68
2023-05-20T01:00:41.212Z,9.68
2023-05-20T01:03:12.478Z,9.69
2023-05-20T01:05:43.540Z,9.68
2023-05-20T01:08:14.550Z,9.67
2023-05-20T01:10:52.753Z,9.68
2023-05-20T01:13:25.972Z,9.63
2023-05-20T01:15:59.077Z,9.64
2023-05-20T01:18:33.922Z,9.63
2023-05-20T01:21:06.321Z,9.63
2023-05-20T01:23:42.318Z,9.57
2023-05-20T01:26:14.116Z,9.61
2023-05-20T01:28:46.836Z,9.58
2023-05-20T01:31:23.168Z,9.56
2023-05-20T01:33:58.882Z,9.54
2023-05-20T01:36:31.893Z,9.53
2023-05-20T01:39:07.040Z,9.51
2023-05-20T01:41:39.844Z,9.52
2023-05-20T01:44:10.842Z,9.50
2023-05-20T01:46:41.661Z,9.50
2023-05-20T01:49:12.458Z,9.52
2023-05-20T01:51:43.312Z,9.50
2023-05-20T01:54:16.748Z,9.51
2023-05-20T01:56:49.270Z,9.50
2023-05-20T01:59:23.343Z,9.47
2023-05-20T02:01:55.019Z,9.48
2023-05-20T02:04:25.979Z,9.47
2023-05-20T02:06:56.794Z,9.45
2023-05-20T02:09:30.256Z,9.44
2023-05-20T02:12:01.244Z,9.44
2023-05-20T02:14:32.300Z,9.41
2023-05-20T02:17:03.448Z,9.42
2023-05-20T02:19:34.482Z,9.37
2023-05-20T02:22:05.239Z,9.35
2023-05-20T02:24:38.684Z,9.31
2023-05-20T02:27:09.765Z,9.28
2023-05-20T02:29:41.684Z,9.25
2023-05-20T02:32:14.469Z,9.20
2023-05-20T02:34:45.213Z,9.17
2023-05-20T02:37:15.961Z,9.13
2023-05-20T02:39:49.536Z,9.11
2023-05-20T02:42:20.472Z,9.10
2023-05-20T02:44:51.561Z,9.06
2023-05-20T02:47:22.484Z,9.03
2023-05-20T02:49:53.274Z,9.01
2023-05-20T02:52:25.248Z,8.99
2023-05-20T02:54:58.766Z,8.95
2023-05-20T02:57:30.576Z,8.91
2023-05-20T03:00:01.457Z,8.88
2023-05-20T03:02:36.230Z,8.86
2023-05-20T03:05:07.309Z,8.84
2023-05-20T03:07:39.658Z,8.81
2023-05-20T03:10:13.954Z,8.79
2023-05-20T03:12:44.833Z,8.77
2023-05-20T03:15:15.792Z,8.76
2023-05-20T03:17:46.555Z,8.73
2023-05-20T03:20:18.071Z,8.72
2023-05-20T03:22:48.915Z,8.72
2023-05-20T03:25:22.470Z,8.72
2023-05-20T03:27:53.292Z,8.72
2023-05-20T03:30:24.680Z,8.74
2023-05-20T03:32:58.097Z,8.75
2023-05-20T03:35:29.361Z,8.77
2023-05-20T03:38:02.070Z,8.77
2023-05-20T03:40:36.670Z,8.80
2023-05-20T03:43:08.291Z,8.83
2023-05-20T03:45:39.182Z,8.86
2023-05-20T03:48:11.612Z,8.90
2023-05-20T03:50:43.663Z,8.95
2023-05-20T03:53:15.257Z,9.00
2023-05-20T03:55:48.867Z,9.04
2023-05-20T03:58:21.148Z,9.06
2023-05-20T04:00:52.151Z,9.11
2023-05-20T04:03:23.310Z,9.14
2023-05-20T04:05:54.326Z,9.19
2023-05-20T04:08:26.276Z,9.25
2023-05-20T04:11:02.042Z,9.36
2023-05-20T04:13:33.078Z,9.48
2023-05-20T04:16:05.645Z,9.63
2023-05-20T04:18:39.582Z,9.80
2023-05-20T04:21:11.620Z,9.94
2023-05-20T04:23:42.520Z,10.05
2023-05-20T04:26:16.108Z,10.14
2023-05-20T04:28:49.112Z,10.22
2023-05-20T04:31:21.345Z,10.27
2023-05-20T04:33:52.362Z,10.31
2023-05-20T04:36:23.402Z,10.36
2023-05-20T04:38:54.306Z,10.42
2023-05-20T04:41:28.016Z,10.46
2023-05-20T04:44:00.168Z,10.51
2023-05-20T04:46:31.965Z,10.57
2023-05-20T04:49:04.811Z,10.64
2023-05-20T04:51:35.747Z,10.75
2023-05-20T04:54:06.585Z,10.94
2023-05-20T04:56:40.786Z,11.21
2023-05-20T04:59:11.636Z,11.53
2023-05-20T05:01:44.126Z,11.92
2023-05-20T05:04:15.082Z,12.33
2023-05-20T05:06:46.043Z,12.77
2023-05-20T05:09:16.878Z,13.19
2023-05-20T05:11:51.248Z,13.58
2023-05-20T05:14:22.650Z,13.98
2023-05-20T05:16:55.582Z,14.42
2023-05-20T05:19:26.944Z,14.84
2023-05-20T05:21:57.881Z,15.23
2023-05-20T05:24:29.303Z,15.59
2023-05-20T05:27:03.023Z,15.92
2023-05-20T05:29:33.870Z,16.27
2023-05-20T05:32:04.753Z,16.60
2023-05-20T05:34:35.548Z,16.96
2023-05-20T05:37:07.602Z,17.34
2023-05-20T05:39:38.792Z,17.49
2023-05-20T05:42:12.519Z,17.55
2023-05-20T05:44:43.673Z,17.63
2023-05-20T05:47:15.361Z,17.80
2023-05-20T05:49:46.913Z,18.05
2023-05-20T05:52:17.909Z,18.36
2023-05-20T05:54:48.697Z,18.76
2023-05-20T05:57:22.295Z,19.14
2023-05-20T05:59:53.162Z,19.52
2023-05-20T06:02:26.448Z,19.88
2023-05-20T06:04:58.430Z,20.27
2023-05-20T06:07:29.313Z,20.63
2023-05-20T06:10:01.446Z,20.98
2023-05-20T06:12:36.884Z,21.35
2023-05-20T06:15:08.903Z,21.65
2023-05-20T06:17:40.196Z,21.97
2023-05-20T06:20:12.929Z,22.28
2023-05-20T06:22:43.765Z,22.52
2023-05-20T06:25:15.935Z,22.73
2023-05-20T06:27:49.728Z,23.01
2023-05-20T06:30:23.629Z,23.20
2023-05-20T06:32:54.626Z,23.30
2023-05-20T06:35:25.581Z,23.50
2023-05-20T06:37:56.518Z,23.62
2023-05-20T06:40:27.584Z,23.68
2023-05-20T06:43:01.506Z,23.60
2023-05-20T06:46:12.169Z,23.61
2023-05-20T06:48:49.383Z,23.84
2023-05-20T06:51:21.133Z,24.03
2023-05-20T06:53:53.943Z,24.07
2023-05-20T06:56:24.952Z,23.90
2023-05-20T06:58:58.703Z,23.65
2023-05-20T07:01:30.346Z,23.42
2023-05-20T07:04:01.544Z,23.31
2023-05-20T07:06:33.611Z,23.36
2023-05-20T07:09:05.805Z,23.57
2023-05-20T07:11:37.563Z,23.78
2023-05-20T07:14:11.852Z,23.96
2023-05-20T07:16:42.710Z,24.30
2023-05-20T07:19:13.980Z,24.61
2023-05-20T07:21:44.884Z,24.87
2023-05-20T07:24:21.456Z,24.94
2023-05-20T07:26:52.165Z,24.87
2023-05-20T07:29:25.742Z,24.71
2023-05-20T07:31:56.888Z,24.45
2023-05-20T07:34:28.174Z,24.14
2023-05-20T07:36:59.264Z,23.85
2023-05-20T07:39:30.148Z,23.53
2023-05-20T07:42:01.272Z,23.20
2023-05-20T07:44:35.093Z,22.85
2023-05-20T07:47:06.513Z,22.48
2023-05-20T07:49:38.192Z,22.24
2023-05-20T07:52:10.074Z,21.96
2023-05-20T07:54:40.992Z,21.67
2023-05-20T07:57:12.026Z,21.42
2023-05-20T07:59:45.628Z,21.16
2023-05-20T08:02:18.052Z,20.98
2023-05-20T08:04:49.241Z,20.84
2023-05-20T08:07:19.974Z,20.85
2023-05-20T08:09:56.606Z,20.82
2023-05-20T08:12:27.530Z,20.87
2023-05-20T08:15:01.007Z,21.04
2023-05-20T08:17:32.060Z,21.35
2023-05-20T08:20:03.469Z,21.58
2023-05-20T08:22:35.304Z,21.73
2023-05-20T08:25:06.272Z,21.78
2023-05-20T08:27:37.524Z,21.79
2023-05-20T08:30:14.044Z,21.79
2023-05-20T08:32:45.656Z,21.78
2023-05-20T08:35:16.565Z,21.73
2023-05-20T08:37:47.377Z,21.65
2023-05-20T08:40:18.961Z,21.54
2023-05-20T08:42:53.190Z,21.40
2023-05-20T08:45:28.983Z,21.21
2023-05-20T08:48:06.372Z,21.07
2023-05-20T08:50:37.359Z,20.96
2023-05-20T08:53:08.224Z,20.90
2023-05-20T08:55:45.654Z,20.87
2023-05-20T08:58:18.105Z,20.75
2023-05-20T09:00:51.652Z,20.70
2023-05-20T09:03:24.334Z,20.60
2023-05-20T09:05:56.568Z,20.52
2023-05-20T09:08:29.429Z,20.44
2023-05-20T09:11:00.350Z,20.40
2023-05-20T09:13:33.039Z,20.35
2023-05-20T09:16:06.703Z,20.34
2023-05-20T09:18:37.517Z,20.32
2023-05-20T09:21:10.089Z,20.28
2023-05-20T09:23:41.313Z,20.23
2023-05-20T09:26:12.659Z,20.19
2023-05-20T09:28:43.623Z,20.14
2023-05-20T09:31:18.326Z,20.10
2023-05-20T09:33:49.191Z,20.05
2023-05-20T09:36:20.067Z,20.00
2023-05-20T09:38:53.781Z,19.93
2023-05-20T09:41:27.912Z,19.89
2023-05-20T09:43:59.107Z,19.85
2023-05-20T09:46:33.124Z,19.81
2023-05-20T09:49:07.124Z,19.79
2023-05-20T09:51:38.836Z,19.77
2023-05-20T09:54:10.324Z,19.75
2023-05-20T09:56:43.866Z,19.74
2023-05-20T09:59:16.994Z,19.72
2023-05-20T10:01:50.749Z,19.73
2023-05-20T10:04:23.722Z,19.74
2023-05-20T10:07:14.580Z,19.74
2023-05-20T10:10:03.626Z,19.73
2023-05-20T10:12:42.867Z,19.72
2023-05-20T10:15:20.786Z,19.72
2023-05-20T10:18:01.999Z,19.68
2023-05-20T10:20:33.184Z,19.67
2023-05-20T10:23:05.140Z,19.67
2023-05-20T10:25:36.385Z,19.67
2023-05-20T10:28:12.505Z,19.70
2023-05-20T10:30:53.474Z,19.73
2023-05-20T10:33:30.181Z,19.76
2023-05-20T10:36:02.933Z,19.79
2023-05-20T10:38:33.847Z,19.81
2023-05-20T10:41:12.384Z,19.82
2023-05-20T10:43:44.671Z,19.81
2023-05-20T10:46:32.661Z,19.80
2023-05-20T10:49:26.173Z,19.78
2023-05-20T10:51:58.382Z,19.80
2023-05-20T10:54:29.789Z,19.77
2023-05-20T10:57:00.510Z,19.81
2023-05-20T10:59:31.576Z,19.88
2023-05-20T11:02:06.307Z,19.94
2023-05-20T11:04:39.860Z,20.02
2023-05-20T11:07:10.678Z,20.07
2023-05-20T11:09:41.699Z,20.14
2023-05-20T11:12:12.569Z,20.18
2023-05-20T11:14:43.500Z,20.24
2023-05-20T11:17:14.464Z,20.30
2023-05-20T11:19:47.876Z,20.36
2023-05-20T11:22:19.123Z,20.38
2023-05-20T11:24:50.056Z,20.39
2023-05-20T11:27:21.826Z,20.36
2023-05-20T11:29:54.002Z,20.33
2023-05-20T11:32:24.968Z,20.27
2023-05-20T11:34:58.423Z,20.24
2023-05-20T11:37:29.252Z,20.16
2023-05-20T11:40:11.103Z,20.12
2023-05-20T11:42:41.979Z,20.10
2023-05-20T11:45:17.402Z,20.11
2023-05-20T11:47:48.460Z,20.17
2023-05-20T11:50:23.874Z,20.24
2023-05-20T11:53:00.819Z,20.34
2023-05-20T11:55:32.467Z,20.41
2023-05-20T11:58:04.089Z,20.48
2023-05-20T12:00:46.770Z,20.52
2023-05-20T12:03:22.575Z,20.56
2023-05-20T12:05:56.401Z,20.59
2023-05-20T12:08:27.338Z,20.60
2023-05-20T12:10:58.184Z,20.60
2023-05-20T12:13:29.183Z,20.59
2023-05-20T12:16:00.236Z,20.58
2023-05-20T12:18:31.257Z,20.58
2023-05-20T12:21:05.889Z,20.56
2023-05-20T12:23:37.021Z,20.56
2023-05-20T12:26:07.991Z,20.52
2023-05-20T12:28:38.884Z,20.49
2023-05-20T12:31:09.873Z,20.48
2023-05-20T12:33:40.975Z,20.48
2023-05-20T12:36:14.434Z,20.49
2023-05-20T12:38:45.647Z,20.51
2023-05-20T12:41:16.429Z,20.49
2023-05-20T12:43:47.349Z,20.48
2023-05-20T12:46:18.361Z,20.50
2023-05-20T12:48:49.392Z,20.52
2023-05-20T12:51:22.926Z,20.53
2023-05-20T12:53:53.879Z,20.52
2023-05-20T12:56:26.721Z,20.50
2023-05-20T12:58:58.466Z,20.49
2023-05-20T13:01:29.696Z,20.44
2023-05-20T13:04:00.596Z,20.41
2023-05-20T13:06:34.456Z,20.38
2023-05-20T13:09:05.442Z,20.36
2023-05-20T13:11:36.194Z,20.36
2023-05-20T13:14:07.096Z,20.34
2023-05-20T13:16:37.992Z,20.34
2023-05-20T13:19:09.109Z,20.35
2023-05-20T13:21:42.506Z,20.39
2023-05-20T13:24:13.738Z,20.41
2023-05-20T13:26:44.579Z,20.43
2023-05-20T13:29:16.647Z,20.45
2023-05-20T13:31:47.476Z,20.45
2023-05-20T13:34:18.424Z,20.46
2023-05-20T13:36:52.733Z,20.54
2023-05-20T13:39:23.571Z,20.56
2023-05-20T13:41:55.487Z,20.57
2023-05-20T13:44:26.473Z,20.56
2023-05-20T13:46:57.396Z,20.52
2023-05-20T13:49:28.790Z,20.52
2023-05-20T13:52:02.152Z,20.52
2023-05-20T13:54:32.904Z,20.54
2023-05-20T13:57:08.245Z,20.51
2023-05-20T13:59:39.142Z,20.46
2023-05-20T14:02:11.347Z,20.46
2023-05-20T14:04:45.277Z,20.45
2023-05-20T14:07:18.742Z,20.45
2023-05-20T14:09:49.491Z,20.38
2023-05-20T14:12:20.336Z,20.36
2023-05-20T14:14:51.163Z,20.34
2023-05-20T14:17:22.119Z,20.35
2023-05-20T14:19:52.947Z,20.38
2023-05-20T14:22:26.456Z,20.42
2023-05-20T14:24:57.380Z,20.46
2023-05-20T14:27:28.271Z,20.49
2023-05-20T14:29:59.052Z,20.53
2023-05-20T14:32:30.014Z,20.57
2023-05-20T14:35:00.889Z,20.61
2023-05-20T14:37:34.475Z,20.63
2023-05-20T14:40:05.437Z,20.59
2023-05-20T14:42:36.731Z,20.31
2023-05-20T14:45:08.154Z,19.90
2023-05-20T14:47:40.525Z,19.34
2023-05-20T14:50:11.952Z,18.81
2023-05-20T14:52:46.266Z,18.22
2023-05-20T14:55:17.250Z,17.58
2023-05-20T14:57:48.242Z,17.18
2023-05-20T15:00:19.578Z,16.80
2023-05-20T15:02:50.573Z,16.47
2023-05-20T15:05:21.510Z,16.25
2023-05-20T15:07:55.030Z,16.07
2023-05-20T15:10:26.190Z,15.92
2023-05-20T15:12:57.076Z,15.82
2023-05-20T15:15:27.959Z,15.72
2023-05-20T15:17:59.064Z,15.66
2023-05-20T15:20:30.268Z,15.62
2023-05-20T15:23:04.347Z,15.59
2023-05-20T15:25:37.335Z,15.58
2023-05-20T15:28:08.588Z,15.55
2023-05-20T15:30:39.351Z,15.53
2023-05-20T15:33:10.515Z,15.50
2023-05-20T15:35:41.393Z,15.46
2023-05-20T15:38:14.825Z,15.42
2023-05-20T15:40:45.587Z,15.39
2023-05-20T15:43:16.415Z,15.39
2023-05-20T15:45:48.606Z,15.39
2023-05-20T15:48:19.604Z,15.36
2023-05-20T15:50:50.402Z,15.37
2023-05-20T15:53:23.876Z,15.32
2023-05-20T15:55:55.130Z,15.28
2023-05-20T15:58:25.945Z,15.26
2023-05-20T16:00:56.868Z,15.27
2023-05-20T16:03:27.793Z,15.27
2023-05-20T16:05:58.816Z,15.29
2023-05-20T16:08:34.463Z,15.30
2023-05-20T16:11:05.292Z,15.33
2023-05-20T16:13:36.221Z,15.32
2023-05-20T16:16:07.570Z,15.27
2023-05-20T16:18:38.516Z,15.27
2023-05-20T16:21:09.737Z,15.26
2023-05-20T16:23:43.199Z,15.26
2023-05-20T16:26:14.817Z,15.28
2023-05-20T16:28:45.813Z,15.29
2023-05-20T16:31:16.794Z,15.30
2023-05-20T16:33:47.709Z,15.28
2023-05-20T16:36:18.527Z,15.27
2023-05-20T16:38:52.121Z,15.27
2023-05-20T16:41:23.218Z,15.25
2023-05-20T16:43:54.151Z,15.21
2023-05-20T16:46:25.057Z,15.19
2023-05-20T16:48:57.333Z,15.13
2023-05-20T16:51:28.359Z,15.12
2023-05-20T16:54:02.025Z,15.08
2023-05-20T16:56:33.735Z,15.03
2023-05-20T16:59:04.871Z,14.99
2023-05-20T17:01:37.232Z,14.96
2023-05-20T17:04:09.029Z,14.92
2023-05-20T17:06:40.189Z,14.90
2023-05-20T17:09:15.460Z,14.87
2023-05-20T17:11:46.167Z,14.82
2023-05-20T17:14:16.932Z,14.77
2023-05-20T17:16:47.751Z,14.73
2023-05-20T17:19:18.839Z,14.68
2023-05-20T17:21:49.599Z,14.61
2023-05-20T17:24:23.073Z,14.56
2023-05-20T17:26:54.057Z,14.52
2023-05-20T17:29:24.933Z,14.48
2023-05-20T17:31:55.940Z,14.45
2023-05-20T17:34:26.846Z,14.41
2023-05-20T17:36:58.043Z,14.37
2023-05-20T17:39:31.562Z,14.31
2023-05-20T17:42:03.334Z,14.27
2023-05-20T17:44:34.250Z,14.22
2023-05-20T17:47:05.151Z,14.17
2023-05-20T17:49:36.140Z,14.11
2023-05-20T17:52:07.069Z,14.07
2023-05-20T17:54:42.327Z,14.01
2023-05-20T17:57:13.219Z,13.93
2023-05-20T17:59:45.686Z,13.89
2023-05-20T18:02:16.458Z,13.83
2023-05-20T18:04:47.324Z,13.78
2023-05-20T18:07:18.338Z,13.73
2023-05-20T18:09:51.856Z,13.69
2023-05-20T18:12:22.681Z,13.66
2023-05-20T18:14:53.532Z,13.62
2023-05-20T18:17:24.444Z,13.58
2023-05-20T18:19:55.397Z,13.55
2023-05-20T18:22:26.425Z,13.53
2023-05-20T18:24:59.950Z,13.49
2023-05-20T18:27:32.171Z,13.45
2023-05-20T18:30:03.097Z,13.39
2023-05-20T18:32:37.128Z,13.29
2023-05-20T18:35:08.833Z,13.27
2023-05-20T18:37:39.624Z,13.22
2023-05-20T18:40:14.362Z,13.18
2023-05-20T18:42:45.284Z,13.16
2023-05-20T18:45:16.498Z,13.14
2023-05-20T18:47:47.332Z,13.13
2023-05-20T18:50:18.171Z,13.12
2023-05-20T18:52:49.111Z,13.11
2023-05-20T18:55:22.757Z,13.07
2023-05-20T18:57:53.592Z,13.04
2023-05-20T19:00:24.740Z,12.97
2023-05-20T19:02:58.390Z,12.95
2023-05-20T19:05:29.228Z,12.91
2023-05-20T19:08:00.698Z,12.88
2023-05-20T19:10:34.177Z,12.84
2023-05-20T19:13:04.980Z,12.83
2023-05-20T19:15:38.034Z,12.80
2023-05-20T19:18:09.140Z,12.78
2023-05-20T19:20:42.933Z,12.76
2023-05-20T19:23:13.865Z,12.74
2023-05-20T19:25:47.373Z,12.73
2023-05-20T19:28:18.408Z,12.72
2023-05-20T19:30:49.289Z,12.71
2023-05-20T19:33:20.126Z,12.69
2023-05-20T19:35:51.351Z,12.68
2023-05-20T19:38:22.247Z,12.65
2023-05-20T19:40:55.672Z,12.64
2023-05-20T19:43:26.490Z,12.59
2023-05-20T19:45:57.320Z,12.56
2023-05-20T19:48:28.150Z,12.52
2023-05-20T19:50:59.014Z,12.50
2023-05-20T19:53:29.870Z,12.46
2023-05-20T19:56:03.438Z,12.45
2023-05-20T19:58:34.257Z,12.38
2023-05-20T20:01:07.054Z,12.33
2023-05-20T20:03:37.880Z,12.27
2023-05-20T20:06:08.844Z,12.25
2023-05-20T20:08:40.210Z,12.24
2023-05-20T20:11:13.752Z,12.23
2023-05-20T20:13:44.705Z,12.22
2023-05-20T20:16:15.807Z,12.20
2023-05-20T20:18:46.987Z,12.16
2023-05-20T20:21:18.424Z,12.12
2023-05-20T20:23:49.102Z,12.09
2023-05-20T20:26:23.057Z,12.03
2023-05-20T20:28:54.097Z,12.00
2023-05-20T20:31:25.095Z,11.97
2023-05-20T20:33:55.892Z,11.93
2023-05-20T20:36:32.122Z,11.91
2023-05-20T20:39:05.453Z,11.89
2023-05-20T20:41:39.013Z,11.89
2023-05-20T20:44:10.936Z,11.89
2023-05-20T20:46:41.802Z,11.87
2023-05-20T20:49:12.804Z,11.86
2023-05-20T20:51:43.867Z,11.85
2023-05-20T20:54:14.836Z,11.83
2023-05-20T20:56:48.737Z,11.83
2023-05-20T20:59:22.357Z,11.83
2023-05-20T21:01:53.127Z,11.81
2023-05-20T21:04:25.261Z,11.79
2023-05-20T21:06:56.148Z,11.77
2023-05-20T21:09:26.876Z,11.74
2023-05-20T21:12:00.746Z,11.69
2023-05-20T21:14:31.630Z,11.68
2023-05-20T21:17:02.539Z,11.66
2023-05-20T21:19:33.410Z,11.63
2023-05-20T21:22:04.275Z,11.62
2023-05-20T21:24:35.097Z,11.60
2023-05-20T21:27:09.029Z,11.59
2023-05-20T21:29:40.376Z,11.55
2023-05-20T21:32:11.914Z,11.52
2023-05-20T21:34:42.730Z,11.50
2023-05-20T21:37:15.020Z,11.48
2023-05-20T21:39:45.927Z,11.46
2023-05-20T21:42:19.421Z,11.43
2023-05-20T21:44:50.220Z,11.42
2023-05-20T21:47:21.312Z,11.39
2023-05-20T21:49:52.097Z,11.34
2023-05-20T21:52:22.983Z,11.30
2023-05-20T21:54:53.752Z,11.27
2023-05-20T21:57:27.317Z,11.22
2023-05-20T21:59:58.104Z,11.20
2023-05-20T22:02:29.012Z,11.18
2023-05-20T22:05:00.765Z,11.16
2023-05-20T22:07:33.393Z,11.14
2023-05-20T22:10:04.669Z,11.14
2023-05-20T22:12:38.361Z,11.11
2023-05-20T22:15:10.466Z,11.11
2023-05-20T22:17:41.444Z,11.11
2023-05-20T22:20:14.070Z,11.11
2023-05-20T22:22:44.883Z,11.12
2023-05-20T22:25:15.882Z,11.12
2023-05-20T22:27:49.490Z,11.13
2023-05-20T22:30:20.535Z,11.12
2023-05-20T22:32:52.013Z,11.14
2023-05-20T22:35:24.003Z,11.09
2023-05-20T22:37:55.226Z,11.15
2023-05-20T22:40:26.194Z,11.13
2023-05-20T22:42:59.802Z,11.12
2023-05-20T22:45:30.704Z,11.11
2023-05-20T22:48:02.182Z,11.11
2023-05-20T22:50:35.740Z,11.09
2023-05-20T22:53:06.871Z,11.08
2023-05-20T22:55:39.069Z,11.07
2023-05-20T22:58:12.638Z,11.05
2023-05-20T23:00:44.762Z,10.97
2023-05-20T23:03:15.708Z,11.01
2023-05-20T23:05:46.622Z,10.99
2023-05-20T23:08:17.512Z,10.98
2023-05-20T23:10:48.249Z,10.96
2023-05-20T23:13:21.668Z,10.94
2023-05-20T23:15:52.559Z,10.91
2023-05-20T23:18:23.485Z,10.91
2023-05-20T23:20:54.315Z,10.90
2023-05-20T23:23:30.987Z,10.91
2023-05-20T23:26:02.716Z,10.90
2023-05-20T23:28:36.158Z,10.90
2023-05-20T23:31:07.090Z,10.89
2023-05-20T23:33:38.229Z,10.89
2023-05-20T23:36:10.024Z,10.90
2023-05-20T23:38:40.989Z,10.90
2023-05-20T23:41:11.801Z,10.90
2023-05-20T23:43:45.282Z,10.89
2023-05-20T23:46:16.148Z,10.89
2023-05-20T23:48:48.590Z,10.89
2023-05-20T23:51:19.522Z,10.89
2023-05-20T23:53:50.519Z,10.90
2023-05-20T23:56:21.604Z,10.90
2023-05-20T23:58:55.140Z,10.91
